Time;durP1;ratioP1;P1;durP2;ratioP2;P2;SDS_P1;SDS_P2;PMS_P1;PMS_P2;Temp;Humidity;BMP_temperature;BMP_pressure;BME280_temperature;BME280_humidity;BME280_pressure;Samples;Min_cycle;Max_cycle;Signal;HPM_P1;HPM_P2
2022/06/09 00:01:35;;;;;;;7.55;4.93;;;;;;;21.23;69.96;98702.31;4479186;32;33133;-83
2022/06/09 00:04:08;;;;;;;6.93;3.42;;;;;;;21.16;70.04;98700.25;4478907;32;33737;-83
2022/06/09 00:06:40;;;;;;;10.82;4.95;;;;;;;20.85;70.88;98700.69;4479695;32;33865;-83
2022/06/09 00:09:09;;;;;;;9.95;4.43;;;;;;;21.03;70.58;98710.84;4478959;32;34436;-83
2022/06/09 00:11:42;;;;;;;11.63;5.95;;;;;;;20.94;70.60;98711.50;4478886;32;32837;-83
2022/06/09 00:14:11;;;;;;;7.87;4.68;;;;;;;20.87;71.45;98711.09;4484803;32;33842;-83
2022/06/09 00:16:39;;;;;;;8.70;5.70;;;;;;;21.04;70.86;98717.81;4479030;32;34043;-83
2022/06/09 00:19:08;;;;;;;7.62;4.03;;;;;;;20.84;71.42;98717.44;4479146;32;33903;-83
2022/06/09 00:21:37;;;;;;;7.28;4.25;;;;;;;20.80;71.44;98718.63;4478661;32;33274;-83
2022/06/09 00:24:07;;;;;;;7.68;4.53;;;;;;;20.85;71.44;98713.87;4478677;32;34494;-83
2022/06/09 00:26:36;;;;;;;8.30;4.90;;;;;;;20.76;71.41;98716.31;4484340;32;33958;-83
2022/06/09 00:29:06;;;;;;;8.73;3.85;;;;;;;20.69;71.59;98715.88;4478688;32;34113;-83
2022/06/09 00:31:35;;;;;;;11.88;4.75;;;;;;;20.72;70.93;98710.41;4478663;32;33848;-83
2022/06/09 00:34:04;;;;;;;7.72;4.53;;;;;;;20.57;71.31;98708.84;4472525;32;34557;-83
2022/06/09 00:36:33;;;;;;;6.60;3.87;;;;;;;20.86;69.71;98702.34;4462245;32;33948;-83
2022/06/09 00:39:01;;;;;;;6.68;3.85;;;;;;;20.57;70.98;98696.50;4467681;32;33638;-83
2022/06/09 00:41:30;;;;;;;6.75;3.53;;;;;;;20.57;71.09;98698.31;4462173;32;33845;-84
2022/06/09 00:44:16;;;;;;;6.85;3.95;;;;;;;20.42;71.67;98705.47;4462862;32;34526;-83
2022/06/09 00:46:48;;;;;;;8.32;4.00;;;;;;;20.50;71.53;98702.28;4462723;32;34894;-83
2022/06/09 00:49:23;;;;;;;7.60;4.28;;;;;;;20.62;71.01;98699.66;4462843;32;34070;-84
2022/06/09 00:51:56;;;;;;;8.15;4.62;;;;;;;20.80;69.90;98697.53;4474942;32;34160;-83
2022/06/09 00:54:26;;;;;;;6.57;4.00;;;;;;;20.64;70.59;98699.56;4468191;32;34209;-83
2022/06/09 00:56:59;;;;;;;7.05;4.60;;;;;;;20.47;71.80;98711.25;4466940;32;33738;-83
2022/06/09 00:59:31;;;;;;;6.28;4.05;;;;;;;20.45;71.91;98710.50;4462649;32;33424;-83
2022/06/09 01:02:02;;;;;;;6.97;4.15;;;;;;;20.38;72.42;98702.19;4462658;32;33370;-83
2022/06/09 01:04:31;;;;;;;7.07;3.62;;;;;;;20.46;72.30;98710.41;4463090;32;34594;-83
2022/06/09 01:07:05;;;;;;;9.07;4.70;;;;;;;20.55;72.03;98710.72;4464529;32;34587;-83
2022/06/09 01:09:34;;;;;;;7.47;4.72;;;;;;;20.61;72.14;98705.91;4464586;32;34120;-83
2022/06/09 01:12:20;;;;;;;9.05;4.37;;;;;;;20.75;71.67;98698.78;4464477;32;33480;-83
2022/06/09 01:14:50;;;;;;;8.10;4.75;;;;;;;20.96;69.74;98699.91;4464767;32;33774;-83
2022/06/09 01:17:25;;;;;;;7.45;4.65;;;;;;;20.54;71.51;98693.19;4464407;32;34810;-83
2022/06/09 01:20:05;;;;;;;6.68;4.30;;;;;;;20.50;72.14;98699.66;4464427;32;33585;-83
2022/06/09 01:23:20;;;;;;;8.25;4.45;;;;;;;20.82;71.13;98700.88;4464347;32;34274;-83
2022/06/09 01:26:09;;;;;;;6.32;4.00;;;;;;;20.60;71.70;98700.72;4415899;32;33761;-83
2022/06/09 01:29:10;;;;;;;6.62;4.20;;;;;;;20.71;71.20;98692.91;4415426;32;33977;-83
2022/06/09 01:31:44;;;;;;;7.05;4.32;;;;;;;20.79;70.87;98682.66;4407411;32;33849;-83
2022/06/09 01:34:18;;;;;;;6.53;4.00;;;;;;;20.75;70.63;98686.44;4421153;32;33410;-84
2022/06/09 01:36:51;;;;;;;8.02;4.40;;;;;;;20.49;72.06;98675.09;4418553;32;33627;-83
2022/06/09 01:39:28;;;;;;;7.28;4.15;;;;;;;20.52;72.15;98674.87;4415706;32;34877;-83
2022/06/09 01:41:56;;;;;;;7.65;4.12;;;;;;;20.66;71.89;98687.12;4415782;32;34212;-83
2022/06/09 01:44:25;;;;;;;6.60;3.53;;;;;;;20.54;72.51;98680.91;4415802;32;32813;-83
2022/06/09 01:46:56;;;;;;;6.57;3.78;;;;;;;20.45;72.60;98679.72;4415609;32;33919;-84
2022/06/09 01:49:27;;;;;;;7.70;4.22;;;;;;;20.68;72.01;98679.94;4421176;32;34714;-83
2022/06/09 01:51:57;;;;;;;8.27;5.12;;;;;;;20.86;71.09;98683.91;4415635;32;34608;-83
2022/06/09 01:54:28;;;;;;;7.07;4.28;;;;;;;20.63;72.04;98682.06;4415417;32;33921;-83
2022/06/09 01:57:01;;;;;;;7.75;4.00;;;;;;;20.50;72.46;98686.47;4415417;32;33708;-83
2022/06/09 01:59:33;;;;;;;7.25;4.37;;;;;;;20.54;72.27;98680.91;4415564;32;34694;-83
2022/06/09 02:02:06;;;;;;;6.28;3.47;;;;;;;20.60;72.15;98675.19;4451538;32;33376;-84
2022/06/09 02:04:39;;;;;;;6.57;4.32;;;;;;;20.45;72.58;98674.47;4469804;32;33851;-83
2022/06/09 02:07:09;;;;;;;7.85;4.72;;;;;;;20.66;71.70;98680.06;4464001;32;33888;-83
2022/06/09 02:09:38;;;;;;;7.17;4.33;;;;;;;20.28;73.03;98687.97;4464101;32;33758;-83
2022/06/09 02:12:10;;;;;;;6.82;4.05;;;;;;;20.58;72.22;98689.44;4464168;32;34163;-83
2022/06/09 02:14:45;;;;;;;6.90;3.97;;;;;;;20.72;71.51;98691.94;4464012;32;33513;-83
2022/06/09 02:17:17;;;;;;;7.22;4.25;;;;;;;20.77;71.42;98694.25;4469732;32;33740;-83
2022/06/09 02:19:47;;;;;;;6.85;4.32;;;;;;;20.70;71.33;98685.09;4468476;32;34111;-83
2022/06/09 02:22:16;;;;;;;8.55;4.72;;;;;;;20.82;70.95;98678.94;4473575;32;34264;-83
2022/06/09 02:24:46;;;;;;;7.55;3.87;;;;;;;20.61;72.13;98678.69;4479222;32;33402;-83
2022/06/09 02:27:15;;;;;;;8.13;4.45;;;;;;;20.66;72.00;98681.84;4479478;32;33865;-83
2022/06/09 02:29:43;;;;;;;6.95;4.05;;;;;;;20.53;72.62;98688.91;4479769;32;34600;-83
2022/06/09 02:32:12;;;;;;;6.50;4.15;;;;;;;20.69;71.90;98691.34;4485053;32;33878;-83
2022/06/09 02:34:42;;;;;;;6.18;3.42;;;;;;;20.81;71.23;98688.66;4479780;32;34020;-83
2022/06/09 02:37:11;;;;;;;7.75;4.10;;;;;;;20.75;71.93;98689.09;4480756;32;35508;-83
2022/06/09 02:39:40;;;;;;;7.20;4.35;;;;;;;20.98;70.60;98683.97;4479611;32;33740;-83
2022/06/09 02:42:09;;;;;;;6.37;4.12;;;;;;;20.88;70.65;98681.16;4479631;32;33923;-83
2022/06/09 02:44:38;;;;;;;7.05;4.20;;;;;;;20.88;70.95;98689.91;4485353;32;33128;-83
2022/06/09 02:47:07;;;;;;;6.15;4.12;;;;;;;20.85;71.12;98692.78;4479970;32;33898;-84
2022/06/09 02:49:35;;;;;;;7.95;4.62;;;;;;;20.65;71.84;98688.06;4478803;32;33875;-84
2022/06/09 02:52:06;;;;;;;6.25;3.72;;;;;;;20.76;71.71;98692.59;4479298;32;33879;-84
2022/06/09 02:54:35;;;;;;;;;;;;;;;20.88;71.45;98697.81;4482597;32;34088;-83
2022/06/09 02:57:04;;;;;;;7.60;4.40;;;;;;;20.81;72.07;98699.22;4485101;32;34001;-83
2022/06/09 02:59:33;;;;;;;9.10;4.93;;;;;;;20.96;71.83;98707.81;4479325;32;34073;-83
2022/06/09 03:02:03;;;;;;;9.68;5.18;;;;;;;21.12;71.61;98699.66;4479284;32;34090;-83
2022/06/09 03:04:31;;;;;;;8.73;5.10;;;;;;;20.98;72.03;98695.38;4479053;32;33503;-83
2022/06/09 03:07:00;;;;;;;7.32;5.05;;;;;;;20.54;74.28;98698.47;4479520;32;34211;-84
2022/06/09 03:09:31;;;;;;;8.30;4.97;;;;;;;20.60;73.82;98706.00;4480046;32;33967;-83
2022/06/09 03:11:59;;;;;;;10.65;6.35;;;;;;;20.33;74.98;98698.19;4484987;32;35284;-83
2022/06/09 03:14:28;;;;;;;10.45;6.10;;;;;;;20.37;75.05;98695.25;4481324;32;33527;-83
2022/06/09 03:16:57;;;;;;;9.98;6.25;;;;;;;20.24;76.07;98694.38;4479346;32;34260;-83
2022/06/09 03:19:26;;;;;;;12.27;6.72;;;;;;;20.64;74.26;98694.28;4478620;32;34052;-83
2022/06/09 03:21:55;;;;;;;12.85;7.15;;;;;;;20.91;72.70;98699.38;4479186;32;34082;-83
2022/06/09 03:24:24;;;;;;;12.37;6.40;;;;;;;20.94;72.71;98687.78;4484852;32;34121;-83
2022/06/09 03:26:54;;;;;;;12.50;6.87;;;;;;;21.17;71.44;98686.97;4478036;32;33767;-84
2022/06/09 03:29:23;;;;;;;11.52;7.40;;;;;;;20.88;73.13;98692.53;4475845;32;33239;-83
2022/06/09 03:31:52;;;;;;;13.15;7.15;;;;;;;21.01;73.21;98689.03;4479684;32;33689;-84
2022/06/09 03:34:20;;;;;;;9.55;6.12;;;;;;;20.75;74.66;98691.72;4479319;32;33657;-83
2022/06/09 03:36:49;;;;;;;12.05;6.75;;;;;;;20.84;74.99;98690.22;4484781;32;34362;-83
2022/06/09 03:39:18;;;;;;;13.25;6.90;;;;;;;20.92;75.08;98694.94;4478995;32;34795;-84
2022/06/09 03:41:47;;;;;;;13.05;6.72;;;;;;;21.06;74.48;98689.53;4479468;32;33485;-84
2022/06/09 03:44:17;;;;;;;12.13;6.65;;;;;;;21.10;73.86;98693.62;4478927;32;34186;-83
2022/06/09 03:46:48;;;;;;;13.43;8.32;;;;;;;21.39;72.23;98688.03;4478950;32;33505;-83
2022/06/09 03:49:17;;;;;;;12.73;7.32;;;;;;;21.56;70.96;98694.75;4483964;32;34516;-83
2022/06/09 03:51:46;;;;;;;11.80;7.07;;;;;;;21.48;72.13;98687.38;4483754;32;35547;-83
2022/06/09 03:54:15;;;;;;;10.77;6.45;;;;;;;21.24;74.03;98687.38;4479108;32;33618;-83
2022/06/09 03:56:43;;;;;;;13.00;7.22;;;;;;;21.47;73.20;98688.34;4478996;32;33274;-84
2022/06/09 03:59:13;;;;;;;11.45;6.85;;;;;;;21.57;73.20;98689.31;4478886;32;34058;-83
2022/06/09 04:01:43;;;;;;;13.82;7.60;;;;;;;21.71;72.55;98688.31;4479218;32;33785;-83
2022/06/09 04:04:12;;;;;;;13.15;8.00;;;;;;;21.73;73.15;98695.16;4484729;32;32863;-83
2022/06/09 04:06:41;;;;;;;13.65;7.50;;;;;;;21.87;72.75;98691.47;4478971;32;33851;-83
2022/06/09 04:09:11;;;;;;;11.80;6.87;;;;;;;21.92;73.14;98686.69;4478868;32;33639;-83
2022/06/09 04:11:41;;;;;;;24.98;9.20;;;;;;;22.17;71.65;98685.62;4478993;32;33319;-83
2022/06/09 04:14:10;;;;;;;13.40;8.02;;;;;;;22.35;69.47;98690.50;4479025;32;33392;-84
2022/06/09 04:16:44;;;;;;;13.70;7.40;;;;;;;21.83;71.86;98689.19;4484432;32;33482;-83
2022/06/09 04:19:15;;;;;;;11.82;7.43;;;;;;;22.02;71.81;98684.19;4478355;32;34060;-83
2022/06/09 04:21:44;;;;;;;;;;;;;;;22.34;69.77;98686.16;4479431;32;33338;-83
2022/06/09 04:24:13;;;;;;;15.65;8.50;;;;;;;22.47;68.71;98684.25;4479038;32;33367;-83
2022/06/09 04:26:43;;;;;;;16.85;8.80;;;;;;;22.51;68.23;98683.03;4478750;32;33565;-83
2022/06/09 04:29:13;;;;;;;15.77;9.03;;;;;;;22.40;70.00;98692.75;4479981;32;33802;-83
2022/06/09 04:31:43;;;;;;;14.77;7.93;;;;;;;22.42;69.27;98685.56;4484317;32;33841;-83
2022/06/09 04:34:16;;;;;;;15.20;7.72;;;;;;;22.51;69.13;98690.13;4478484;32;33243;-84
2022/06/09 04:36:45;;;;;;;11.80;8.02;;;;;;;22.75;68.71;98695.28;4478470;32;33904;-84
2022/06/09 04:39:14;;;;;;;12.35;7.60;;;;;;;22.73;69.56;98699.84;4478228;32;33898;-83
2022/06/09 04:41:42;;;;;;;11.00;6.80;;;;;;;22.93;68.80;98699.13;4478466;32;33978;-84
2022/06/09 04:44:12;;;;;;;15.82;6.85;;;;;;;23.00;67.89;98707.41;4484458;32;34321;-84
2022/06/09 04:46:41;;;;;;;11.23;6.55;;;;;;;22.94;67.16;98714.03;4478635;32;33474;-83
2022/06/09 04:49:11;;;;;;;13.02;6.85;;;;;;;22.82;68.22;98720.28;4478008;32;33892;-83
2022/06/09 04:51:40;;;;;;;10.93;6.12;;;;;;;22.98;68.80;98725.25;4479176;32;32729;-83
2022/06/09 04:54:08;;;;;;;11.05;6.40;;;;;;;23.23;67.06;98720.63;4478954;32;32854;-83
2022/06/09 04:56:37;;;;;;;13.02;6.60;;;;;;;23.48;66.23;98716.81;4484284;32;34561;-83
2022/06/09 04:59:06;;;;;;;10.80;6.82;;;;;;;23.47;65.45;98715.13;4468444;32;34543;-83
2022/06/09 05:01:35;;;;;;;11.35;6.18;;;;;;;23.70;64.61;98714.06;4474958;32;33951;-83
2022/06/09 05:04:04;;;;;;;10.85;5.25;;;;;;;23.83;64.62;98721.88;4472584;32;34060;-83
2022/06/09 05:06:34;;;;;;;9.68;5.62;;;;;;;23.57;65.33;98719.53;4471279;31;34135;-83
2022/06/09 05:09:04;;;;;;;10.77;5.63;;;;;;;23.26;66.76;98726.50;4480059;32;36841;-83
2022/06/09 05:11:33;;;;;;;9.85;5.43;;;;;;;23.29;66.58;98720.94;4481916;32;33681;-83
2022/06/09 05:14:01;;;;;;;8.45;4.93;;;;;;;23.15;67.15;98724.72;4470206;32;33469;-83
2022/06/09 05:16:30;;;;;;;7.62;5.00;;;;;;;23.09;67.44;98717.28;4460618;32;34457;-83
2022/06/09 05:19:01;;;;;;;8.68;5.37;;;;;;;23.12;66.87;98719.69;4471936;32;33971;-83
2022/06/09 05:21:36;;;;;;;8.98;5.53;;;;;;;22.71;68.07;98720.28;4476193;32;34552;-83
2022/06/09 05:24:08;;;;;;;8.18;4.93;;;;;;;22.71;67.51;98720.28;4481202;32;34018;-83
2022/06/09 05:26:37;;;;;;;9.27;5.50;;;;;;;22.28;69.54;98721.00;4477514;32;34549;-83
2022/06/09 05:29:06;;;;;;;7.57;4.30;;;;;;;22.63;67.55;98728.81;4477589;32;34034;-83
2022/06/09 05:31:35;;;;;;;7.93;5.10;;;;;;;22.57;68.28;98735.44;4476765;32;34040;-83
2022/06/09 05:34:04;;;;;;;7.68;4.80;;;;;;;23.01;66.48;98735.56;4477786;32;33594;-83
2022/06/09 05:36:32;;;;;;;8.15;4.87;;;;;;;23.29;66.83;98739.47;4483319;32;33515;-83
2022/06/09 05:44:54;;;;;;;8.52;4.80;;;;;;;24.25;64.25;98748.38;4472512;32;34041;-83
2022/06/09 05:47:24;;;;;;;8.73;5.18;;;;;;;24.39;63.50;98750.69;4476620;32;33621;-83
2022/06/09 05:49:54;;;;;;;6.43;4.20;;;;;;;24.35;63.05;98759.03;4477509;32;33534;-83
2022/06/09 05:52:26;;;;;;;7.70;4.72;;;;;;;24.39;62.21;98752.50;4478720;32;33569;-83
2022/06/09 05:54:57;;;;;;;8.30;4.95;;;;;;;24.69;59.99;98751.69;4475577;32;33737;-83
2022/06/09 05:57:26;;;;;;;9.20;5.53;;;;;;;24.73;59.96;98749.63;4478366;32;33699;-82
2022/06/09 05:59:55;;;;;;;11.50;6.65;;;;;;;24.68;61.34;98756.16;4479832;32;34055;-83
2022/06/09 06:02:26;;;;;;;13.45;6.47;;;;;;;24.68;60.78;98756.16;4482502;32;33702;-83
2022/06/09 06:04:55;;;;;;;8.77;5.62;;;;;;;24.62;60.26;98751.41;4479646;32;33402;-83
2022/06/09 06:07:24;;;;;;;10.32;5.55;;;;;;;24.40;61.89;98752.34;4477962;32;33391;-83
2022/06/09 06:09:52;;;;;;;11.18;6.10;;;;;;;24.12;62.10;98760.97;4483155;32;34615;-83
2022/06/09 06:12:23;;;;;;;9.57;6.15;;;;;;;24.09;62.50;98761.22;4476526;32;33251;-83
2022/06/09 06:14:51;;;;;;;11.48;6.57;;;;;;;24.13;62.64;98762.66;4477652;32;32923;-83
2022/06/09 06:17:20;;;;;;;15.55;8.57;;;;;;;24.08;63.50;98768.34;4479592;32;34434;-83
2022/06/09 06:19:49;;;;;;;11.80;7.47;;;;;;;24.05;63.07;98768.59;4480709;32;34754;-83
2022/06/09 06:22:19;;;;;;;15.90;8.48;;;;;;;23.98;63.29;98770.06;4485094;32;34768;-83
2022/06/09 06:24:48;;;;;;;16.05;9.23;;;;;;;24.30;61.63;98771.84;4477391;32;33775;-83
2022/06/09 06:27:17;;;;;;;12.70;7.75;;;;;;;24.15;62.69;98772.16;4479663;32;34705;-83
2022/06/09 06:30:08;;;;;;;14.02;9.05;;;;;;;24.12;62.86;98766.28;4479563;32;33976;-83
2022/06/09 06:32:39;;;;;;;14.20;8.45;;;;;;;24.16;63.00;98763.25;4478686;32;33556;-83
2022/06/09 06:35:09;;;;;;;13.45;7.65;;;;;;;23.95;63.37;98754.44;4478350;32;33452;-83
2022/06/09 06:37:43;;;;;;;13.98;7.85;;;;;;;24.06;63.00;98759.66;4483443;32;34027;-83
2022/06/09 06:40:14;;;;;;;14.85;7.82;;;;;;;24.05;62.87;98758.00;4478383;32;33607;-83
2022/06/09 06:42:42;;;;;;;13.25;7.32;;;;;;;24.03;62.99;98768.72;4477257;32;32643;-83
2022/06/09 06:45:14;;;;;;;10.50;5.93;;;;;;;23.79;63.64;98762.81;4478501;32;33528;-82
2022/06/09 06:47:43;;;;;;;9.05;4.95;;;;;;;23.72;63.82;98767.75;4477514;32;34091;-83
2022/06/09 06:50:14;;;;;;;7.60;3.92;;;;;;;23.91;63.54;98761.78;4484434;32;33736;-83
2022/06/09 06:52:43;;;;;;;7.37;4.50;;;;;;;23.70;64.61;98764.38;4482342;32;33761;-83
2022/06/09 06:55:18;;;;;;;6.20;3.58;;;;;;;23.76;64.20;98763.06;4478917;32;33182;-83
2022/06/09 06:57:47;;;;;;;5.82;3.05;;;;;;;23.69;63.81;98756.56;4479218;32;33735;-83
2022/06/09 07:00:20;;;;;;;6.15;2.95;;;;;;;23.55;65.00;98765.63;4478340;32;34739;-83
2022/06/09 07:02:50;;;;;;;5.43;3.15;;;;;;;23.85;62.11;98772.91;4479198;32;33962;-83
2022/06/09 07:05:38;;;;;;;4.60;2.60;;;;;;;23.76;63.78;98768.38;4478258;31;33185;-83
2022/06/09 07:08:08;;;;;;;4.57;2.67;;;;;;;23.81;63.53;98782.91;4484908;32;33573;-83
2022/06/09 07:10:37;;;;;;;5.55;3.03;;;;;;;23.74;63.95;98776.44;4474953;32;33539;-83
2022/06/09 07:13:06;;;;;;;4.90;2.28;;;;;;;23.70;63.56;98782.91;4463391;32;34366;-83
2022/06/09 07:15:37;;;;;;;3.53;2.07;;;;;;;23.69;64.12;98788.34;4467141;32;33349;-82
2022/06/09 07:18:06;;;;;;;5.68;2.92;;;;;;;23.64;64.24;98794.84;4477531;32;33525;-82
2022/06/09 07:20:36;;;;;;;5.47;2.47;;;;;;;23.71;64.62;98781.97;4484330;32;34759;-82
2022/06/09 07:23:04;;;;;;;5.75;2.25;;;;;;;23.59;65.43;98764.44;4478954;32;34000;-82
2022/06/09 07:25:34;;;;;;;7.15;2.97;;;;;;;23.42;66.06;98777.22;4479021;32;33294;-82
2022/06/09 07:28:03;;;;;;;6.37;3.40;;;;;;;23.16;67.11;98775.84;4478390;32;33640;-82
2022/06/09 07:30:32;;;;;;;6.78;3.17;;;;;;;22.86;68.33;98777.28;4478459;32;34791;-82
2022/06/09 07:33:02;;;;;;;5.03;2.78;;;;;;;22.70;69.33;98782.06;4482720;32;33428;-82
2022/06/09 07:35:34;;;;;;;5.47;2.83;;;;;;;22.41;70.64;98787.78;4477033;32;33070;-82
2022/06/09 07:38:04;;;;;;;6.00;2.58;;;;;;;22.50;70.37;98791.53;4478100;32;33555;-82
2022/06/09 07:40:34;;;;;;;;;;;;;;;22.36;71.64;98787.31;4479191;32;34104;-83
2022/06/09 07:43:03;;;;;;;5.10;2.37;;;;;;;22.41;72.04;98784.31;4479483;32;34612;-82
2022/06/09 07:45:32;;;;;;;5.62;2.70;;;;;;;22.30;71.85;98790.41;4479029;32;33945;-83
2022/06/09 07:48:04;;;;;;;5.60;2.75;;;;;;;22.21;73.82;98793.78;4484712;32;33846;-82
2022/06/09 07:50:33;;;;;;;3.55;2.10;;;;;;;22.25;74.99;98789.91;4478379;32;34094;-82
2022/06/09 07:53:02;;;;;;;3.80;2.12;;;;;;;22.36;76.13;98777.56;4476793;32;33643;-83
2022/06/09 07:55:32;;;;;;;4.95;2.10;;;;;;;22.51;73.78;98775.56;4476947;32;33103;-83
2022/06/09 07:58:01;;;;;;;4.03;1.85;;;;;;;22.69;73.98;98777.72;4465115;32;33960;-82
2022/06/09 08:00:31;;;;;;;5.43;2.15;;;;;;;22.87;72.16;98780.75;4469980;32;34461;-82
2022/06/09 08:03:04;;;;;;;3.60;2.28;;;;;;;22.86;73.39;98785.22;4470279;32;159900;-82
2022/06/09 08:05:34;;;;;;;5.50;2.80;;;;;;;22.80;72.25;98775.94;4474021;32;34156;-82
2022/06/09 08:08:05;;;;;;;5.78;2.45;;;;;;;22.74;71.57;98779.06;4465267;32;33860;-82
2022/06/09 08:10:34;;;;;;;4.57;2.42;;;;;;;23.04;71.92;98779.44;4463257;32;34599;-82
2022/06/09 08:13:04;;;;;;;5.65;2.55;;;;;;;23.34;72.39;98779.66;4466988;32;34501;-82
2022/06/09 08:15:37;;;;;;;4.47;2.53;;;;;;;23.43;72.15;98773.59;4468724;32;33496;-82
2022/06/09 08:18:08;;;;;;;6.03;2.90;;;;;;;23.64;70.13;98775.47;4463184;32;34030;-82
2022/06/09 08:20:38;;;;;;;5.95;2.92;;;;;;;23.54;69.26;98774.56;4472455;31;33087;-82
2022/06/09 08:23:26;;;;;;;6.82;3.22;;;;;;;23.76;68.81;98782.44;4478523;32;33428;-82
2022/06/09 08:26:02;;;;;;;4.68;2.42;;;;;;;23.57;70.00;98775.13;4479171;32;33508;-82
2022/06/09 08:28:31;;;;;;;4.75;2.42;;;;;;;23.72;68.23;98767.75;4478678;32;34773;-83
2022/06/09 08:31:00;;;;;;;5.10;2.45;;;;;;;23.86;69.08;98771.94;4484398;32;33972;-83
2022/06/09 08:33:30;;;;;;;2.83;1.67;;;;;;;23.68;69.57;98768.97;4476615;32;33562;-82
2022/06/09 08:35:59;;;;;;;4.60;2.22;;;;;;;23.92;67.30;98774.09;4463527;32;33311;-83
2022/06/09 08:38:28;;;;;;;2.08;1.30;;;;;;;23.95;66.23;98768.53;4463110;32;33598;-82
2022/06/09 08:41:01;;;;;;;1.48;1.10;;;;;;;24.13;65.70;98771.44;4462938;32;34736;-82
2022/06/09 08:43:35;;;;;;;2.03;1.27;;;;;;;24.18;64.60;98776.34;4468412;32;34516;-82
2022/06/09 08:46:09;;;;;;;3.10;1.58;;;;;;;24.13;64.98;98775.91;4462727;32;33197;-82
2022/06/09 08:48:41;;;;;;;4.03;1.42;;;;;;;24.25;64.35;98778.34;4462847;32;33498;-82
2022/06/09 08:51:14;;;;;;;2.78;1.37;;;;;;;24.28;62.39;98767.50;4463780;32;33757;-83
2022/06/09 08:53:49;;;;;;;3.45;1.70;;;;;;;24.29;63.38;98765.69;4462514;32;34012;-83
2022/06/09 08:56:21;;;;;;;2.45;1.35;;;;;;;24.38;64.62;98772.88;4463063;32;34132;-82
2022/06/09 08:58:56;;;;;;;2.28;1.45;;;;;;;24.52;63.67;98770.88;4468305;32;34424;-83
2022/06/09 09:01:37;;;;;;;3.00;1.77;;;;;;;24.62;62.44;98769.09;4468299;32;34815;-83
2022/06/09 09:04:17;;;;;;;4.22;2.28;;;;;;;24.63;63.57;98770.81;4462665;32;33581;-83
2022/06/09 09:06:49;;;;;;;3.97;1.92;;;;;;;24.74;61.79;98767.22;4462239;32;33651;-83
2022/06/09 09:09:22;;;;;;;2.97;1.85;;;;;;;24.77;61.76;98770.44;4465529;32;34757;-83
2022/06/09 09:11:58;;;;;;;4.60;2.58;;;;;;;24.70;62.22;98762.19;4462462;32;34837;-83
2022/06/09 09:14:30;;;;;;;4.25;1.83;;;;;;;24.44;62.35;98756.44;4463722;32;33936;-83
2022/06/09 09:17:05;;;;;;;4.97;2.62;;;;;;;24.77;61.79;98762.50;4468280;32;33501;-83
2022/06/09 09:19:43;;;;;;;6.12;2.95;;;;;;;24.88;61.28;98756.25;4462369;32;33944;-83
2022/06/09 09:22:19;;;;;;;5.85;2.40;;;;;;;24.73;60.48;98752.28;4462736;32;33652;-83
2022/06/09 09:25:00;;;;;;;5.30;2.33;;;;;;;25.11;61.66;98751.59;4462542;32;33483;-83
2022/06/09 09:27:35;;;;;;;6.05;2.90;;;;;;;25.27;60.14;98746.62;4465306;32;33879;-83
2022/06/09 09:30:14;;;;;;;3.97;2.12;;;;;;;25.28;60.41;98748.28;4464682;32;33342;-83
2022/06/09 09:32:45;;;;;;;3.92;2.00;;;;;;;25.45;61.05;98748.59;4470414;32;34682;-83
2022/06/09 09:35:22;;;;;;;3.50;1.62;;;;;;;25.66;57.17;98737.84;4468386;32;33984;-83
2022/06/09 09:37:53;;;;;;;3.33;1.90;;;;;;;25.85;57.99;98737.84;4464287;32;34094;-83
2022/06/09 09:40:26;;;;;;;4.05;2.05;;;;;;;25.97;55.51;98741.22;4464587;32;33625;-83
2022/06/09 09:42:58;;;;;;;3.85;1.83;;;;;;;25.96;54.86;98742.22;4464523;32;34649;-83
2022/06/09 09:45:34;;;;;;;3.72;1.92;;;;;;;25.96;57.01;98739.56;4464452;32;35458;-83
2022/06/09 09:48:05;;;;;;;4.05;1.70;;;;;;;25.93;55.75;98740.69;4469943;32;34283;-83
2022/06/09 09:50:45;;;;;;;5.53;2.20;;;;;;;26.13;56.33;98738.81;4468463;32;33992;-83
2022/06/09 09:53:24;;;;;;;3.17;1.70;;;;;;;26.53;57.68;98734.22;4464054;32;34646;-83
2022/06/09 09:55:54;;;;;;;4.22;2.60;;;;;;;26.88;55.58;98746.06;4464524;32;34282;-83
2022/06/09 09:58:33;;;;;;;2.92;1.67;;;;;;;26.85;54.67;98739.19;4464069;32;33016;-83
2022/06/09 10:01:06;;;;;;;3.08;1.35;;;;;;;27.06;57.17;98741.59;4479840;32;33960;-83
2022/06/09 10:09:37;;;;;;;4.97;1.35;;;;;;;26.71;52.86;98724.53;4469600;32;33736;-83
2022/06/09 10:12:11;;;;;;;3.62;1.92;;;;;;;26.71;52.01;98719.22;4469736;32;34704;-83
2022/06/09 10:15:03;;;;;;;3.40;1.80;;;;;;;26.84;52.52;98704.75;4464130;32;33709;-83
2022/06/09 10:17:37;;;;;;;3.00;1.20;;;;;;;27.09;51.25;98703.22;4463877;32;33755;-83
2022/06/09 10:20:31;;;;;;;3.78;1.98;;;;;;;27.16;51.48;98713.13;4464032;32;33210;-83
2022/06/09 10:23:28;;;;;;;4.35;2.20;;;;;;;27.06;51.22;98714.13;4478859;32;33797;-83
2022/06/09 10:26:01;;;;;;;4.53;2.40;;;;;;;26.93;52.83;98717.16;4480034;32;33806;-83
2022/06/09 10:28:37;;;;;;;4.60;1.98;;;;;;;27.16;49.91;98717.56;4479541;32;33575;-83
2022/06/09 10:31:12;;;;;;;4.10;1.95;;;;;;;27.00;49.06;98715.59;4480822;32;33324;-83
2022/06/09 10:33:46;;;;;;;3.90;1.83;;;;;;;27.16;51.46;98718.44;4485089;32;34364;-83
2022/06/09 10:36:18;;;;;;;3.67;2.00;;;;;;;27.31;50.71;98717.97;4479547;32;33906;-83
2022/06/09 10:38:50;;;;;;;4.07;2.05;;;;;;;27.48;49.76;98717.12;4478637;32;34073;-83
2022/06/09 10:41:23;;;;;;;4.62;1.95;;;;;;;27.39;51.78;98715.38;4479880;32;33649;-83
2022/06/09 10:43:56;;;;;;;4.28;1.98;;;;;;;27.15;51.09;98710.59;4479416;32;34466;-83
2022/06/09 10:46:32;;;;;;;3.95;2.05;;;;;;;27.21;53.35;98702.88;4482454;32;34020;-83
2022/06/09 10:55:15;;;;;;;4.60;1.87;;;;;;;27.26;49.15;98685.62;4481916;32;33628;-83
2022/06/09 10:57:51;;;;;;;3.83;1.87;;;;;;;27.38;49.66;98671.09;4479514;32;34706;-83
2022/06/09 11:00:24;;;;;;;4.03;1.95;;;;;;;27.62;50.71;98673.97;4477092;32;34478;-83
2022/06/09 11:02:55;;;;;;;4.45;2.22;;;;;;;27.86;49.54;98676.03;4463897;32;32941;-83
2022/06/09 11:05:33;;;;;;;3.78;1.90;;;;;;;27.97;45.61;98676.75;4471212;32;33698;-83
2022/06/09 11:08:08;;;;;;;3.97;1.98;;;;;;;28.30;45.73;98683.13;4479297;32;34869;-83
2022/06/09 11:10:54;;;;;;;3.97;1.90;;;;;;;28.12;44.90;98677.84;4485006;32;33846;-83
2022/06/09 11:13:44;;;;;;;4.93;2.35;;;;;;;28.11;48.20;98678.84;4481996;32;33327;-83
2022/06/09 11:16:36;;;;;;;4.43;2.08;;;;;;;28.22;45.59;98670.59;4468640;32;33795;-83
2022/06/09 11:19:29;;;;;;;5.03;2.00;;;;;;;28.24;46.90;98671.25;4463451;32;34010;-83
2022/06/09 11:22:02;;;;;;;4.35;2.05;;;;;;;28.45;48.38;98673.56;4463923;32;34272;-83
2022/06/09 11:24:34;;;;;;;3.42;1.62;;;;;;;28.43;45.54;98662.19;4463436;32;33286;-84
2022/06/09 11:27:16;;;;;;;4.78;1.95;;;;;;;28.34;44.22;98652.47;4463791;32;33330;-83
2022/06/09 11:29:58;;;;;;;3.85;1.70;;;;;;;28.15;47.19;98637.56;4463523;32;34705;-83
2022/06/09 11:32:31;;;;;;;3.50;1.73;;;;;;;27.94;45.48;98629.91;4464990;32;33861;-83
2022/06/09 11:35:21;;;;;;;2.92;1.55;;;;;;;27.71;46.71;98634.03;4476140;32;33450;-83
2022/06/09 11:38:02;;;;;;;4.05;1.95;;;;;;;27.37;47.45;98629.44;4463717;32;33957;-83
2022/06/09 11:40:38;;;;;;;3.50;1.80;;;;;;;27.18;47.58;98636.59;4469781;32;34785;-83
2022/06/09 11:43:23;;;;;;;2.62;1.52;;;;;;;26.94;50.60;98638.97;4473191;31;34024;-83
2022/06/09 11:45:55;;;;;;;3.55;1.87;;;;;;;26.68;52.78;98626.41;4464275;31;33533;-83
2022/06/09 11:48:29;;;;;;;5.80;2.03;;;;;;;26.67;53.09;98623.88;4465261;32;33630;-83
2022/06/09 11:50:59;;;;;;;4.45;2.25;;;;;;;26.29;52.92;98621.25;4484318;32;32697;-82
2022/06/09 11:53:30;;;;;;;4.30;1.95;;;;;;;26.27;53.01;98628.53;4476189;32;34499;-83
2022/06/09 11:56:34;;;;;;;3.30;1.73;;;;;;;26.06;53.79;98636.72;4470790;32;32308;-82
2022/06/09 11:59:17;;;;;;;1.60;1.20;;;;;;;25.31;57.07;98646.28;4428994;32;33466;-83
2022/06/09 12:02:08;;;;;;;2.55;1.20;;;;;;;24.15;59.36;98726.28;4428664;32;34818;-82
2022/06/09 12:05:10;;;;;;;3.67;1.40;;;;;;;23.15;62.99;98804.09;4428220;32;34594;-83
2022/06/09 12:08:05;;;;;;;5.62;2.17;;;;;;;22.55;62.79;98808.72;4425918;32;33464;-84
2022/06/09 12:10:46;;;;;;;2.42;0.68;;;;;;;21.16;64.38;98745.94;4420806;32;34759;-84
2022/06/09 12:13:22;;;;;;;0.68;0.68;;;;;;;20.31;63.73;98695.66;4428317;32;33994;-83
2022/06/09 12:15:58;;;;;;;2.70;0.85;;;;;;;19.80;66.41;98672.78;4434165;32;33793;-82